sensor_id;sensor_type;location;lat;lon;timestamp;pressure;altitude;pressure_sealevel;temperature;humidity
70254;BME280;57649;42.968;1.608;2023-04-24T00:01:10;97213.56;;;8.90;100.00
70254;BME280;57649;42.968;1.608;2023-04-24T00:03:36;97214.44;;;8.91;100.00
70254;BME280;57649;42.968;1.608;2023-04-24T00:06:02;97210.28;;;9.04;100.00
70254;BME280;57649;42.968;1.608;2023-04-24T00:08:27;97201.78;;;9.09;100.00
70254;BME280;57649;42.968;1.608;2023-04-24T00:10:53;97202.50;;;9.28;100.00
70254;BME280;57649;42.968;1.608;2023-04-24T00:13:18;97213.34;;;9.26;100.00
70254;BME280;57649;42.968;1.608;2023-04-24T00:15:44;97205.84;;;9.21;100.00
70254;BME280;57649;42.968;1.608;2023-04-24T00:18:09;97190.31;;;9.25;100.00
70254;BME280;57649;42.968;1.608;2023-04-24T00:20:34;97202.66;;;9.42;100.00
70254;BME280;57649;42.968;1.608;2023-04-24T00:23:03;97195.84;;;9.56;100.00
70254;BME280;57649;42.968;1.608;2023-04-24T00:25:28;97211.22;;;9.54;100.00
70254;BME280;57649;42.968;1.608;2023-04-24T00:27:54;97195.34;;;9.53;100.00
70254;BME280;57649;42.968;1.608;2023-04-24T00:30:19;97206.03;;;9.53;100.00
70254;BME280;57649;42.968;1.608;2023-04-24T00:32:44;97201.66;;;9.52;100.00
70254;BME280;57649;42.968;1.608;2023-04-24T00:35:10;97204.38;;;9.60;100.00
70254;BME280;57649;42.968;1.608;2023-04-24T00:37:35;97206.34;;;9.66;100.00
70254;BME280;57649;42.968;1.608;2023-04-24T00:40:01;97212.88;;;9.63;100.00
70254;BME280;57649;42.968;1.608;2023-04-24T00:42:27;97205.00;;;9.70;100.00
70254;BME280;57649;42.968;1.608;2023-04-24T00:44:52;97205.50;;;9.74;100.00
70254;BME280;57649;42.968;1.608;2023-04-24T00:47:18;97196.34;;;9.76;100.00
70254;BME280;57649;42.968;1.608;2023-04-24T00:49:44;97193.66;;;9.76;100.00
70254;BME280;57649;42.968;1.608;2023-04-24T00:52:09;97211.19;;;9.87;100.00
70254;BME280;57649;42.968;1.608;2023-04-24T00:54:36;97209.69;;;9.85;100.00
70254;BME280;57649;42.968;1.608;2023-04-24T00:57:04;97203.03;;;9.80;100.00
70254;BME280;57649;42.968;1.608;2023-04-24T00:59:30;97204.69;;;9.90;100.00
70254;BME280;57649;42.968;1.608;2023-04-24T01:01:57;97212.38;;;9.93;100.00
70254;BME280;57649;42.968;1.608;2023-04-24T01:04:24;97209.84;;;9.83;100.00
70254;BME280;57649;42.968;1.608;2023-04-24T01:06:49;97217.03;;;9.91;100.00
70254;BME280;57649;42.968;1.608;2023-04-24T01:09:16;97203.34;;;9.86;100.00
70254;BME280;57649;42.968;1.608;2023-04-24T01:11:43;97204.50;;;9.83;100.00
70254;BME280;57649;42.968;1.608;2023-04-24T01:14:08;97207.69;;;9.95;100.00
70254;BME280;57649;42.968;1.608;2023-04-24T01:16:34;97199.50;;;9.96;100.00
70254;BME280;57649;42.968;1.608;2023-04-24T01:19:01;97195.97;;;10.04;100.00
70254;BME280;57649;42.968;1.608;2023-04-24T01:21:28;97209.84;;;10.08;100.00
70254;BME280;57649;42.968;1.608;2023-04-24T01:23:55;97198.66;;;10.04;100.00
70254;BME280;57649;42.968;1.608;2023-04-24T01:26:22;97197.28;;;10.08;100.00
70254;BME280;57649;42.968;1.608;2023-04-24T01:28:48;97208.16;;;10.15;100.00
70254;BME280;57649;42.968;1.608;2023-04-24T01:31:14;97202.97;;;10.13;100.00
70254;BME280;57649;42.968;1.608;2023-04-24T01:33:42;97219.69;;;10.15;100.00
70254;BME280;57649;42.968;1.608;2023-04-24T01:36:09;97204.97;;;10.19;100.00
70254;BME280;57649;42.968;1.608;2023-04-24T01:38:35;97199.28;;;10.23;100.00
70254;BME280;57649;42.968;1.608;2023-04-24T01:41:01;97208.28;;;10.21;100.00
70254;BME280;57649;42.968;1.608;2023-04-24T01:43:26;97213.31;;;10.25;100.00
70254;BME280;57649;42.968;1.608;2023-04-24T01:45:51;97217.88;;;10.08;100.00
70254;BME280;57649;42.968;1.608;2023-04-24T01:48:17;97210.03;;;9.90;100.00
70254;BME280;57649;42.968;1.608;2023-04-24T01:50:43;97219.53;;;9.92;100.00
70254;BME280;57649;42.968;1.608;2023-04-24T01:53:08;97220.19;;;9.94;100.00
70254;BME280;57649;42.968;1.608;2023-04-24T01:55:33;97209.31;;;10.12;100.00
70254;BME280;57649;42.968;1.608;2023-04-24T01:57:59;97197.97;;;10.18;100.00
70254;BME280;57649;42.968;1.608;2023-04-24T02:00:25;97199.13;;;10.24;100.00
70254;BME280;57649;42.968;1.608;2023-04-24T02:02:50;97205.13;;;10.18;100.00
70254;BME280;57649;42.968;1.608;2023-04-24T02:05:16;97204.13;;;10.35;100.00
70254;BME280;57649;42.968;1.608;2023-04-24T02:07:41;97213.50;;;10.31;100.00
70254;BME280;57649;42.968;1.608;2023-04-24T02:10:07;97196.78;;;10.21;100.00
70254;BME280;57649;42.968;1.608;2023-04-24T02:12:32;97202.94;;;10.21;100.00
70254;BME280;57649;42.968;1.608;2023-04-24T02:14:58;97212.81;;;10.21;100.00
70254;BME280;57649;42.968;1.608;2023-04-24T02:17:23;97191.28;;;9.98;100.00
70254;BME280;57649;42.968;1.608;2023-04-24T02:19:48;97209.50;;;10.02;100.00
70254;BME280;57649;42.968;1.608;2023-04-24T02:22:14;97200.97;;;9.91;100.00
70254;BME280;57649;42.968;1.608;2023-04-24T02:24:40;97202.34;;;9.95;100.00
70254;BME280;57649;42.968;1.608;2023-04-24T02:27:05;97202.34;;;9.95;100.00
70254;BME280;57649;42.968;1.608;2023-04-24T02:29:31;97206.34;;;9.91;100.00
70254;BME280;57649;42.968;1.608;2023-04-24T02:31:57;97202.34;;;9.87;100.00
70254;BME280;57649;42.968;1.608;2023-04-24T02:34:22;97204.84;;;9.88;100.00
70254;BME280;57649;42.968;1.608;2023-04-24T02:36:48;97206.34;;;9.91;100.00
70254;BME280;57649;42.968;1.608;2023-04-24T02:39:14;97201.34;;;9.88;100.00
70254;BME280;57649;42.968;1.608;2023-04-24T02:41:41;97213.84;;;9.87;100.00
70254;BME280;57649;42.968;1.608;2023-04-24T02:44:07;97201.16;;;9.81;100.00
70254;BME280;57649;42.968;1.608;2023-04-24T02:46:32;97207.03;;;9.68;100.00
70254;BME280;57649;42.968;1.608;2023-04-24T02:48:57;97204.88;;;9.63;100.00
70254;BME280;57649;42.968;1.608;2023-04-24T02:51:23;97211.69;;;9.58;100.00
70254;BME280;57649;42.968;1.608;2023-04-24T02:53:48;97201.66;;;9.52;100.00
70254;BME280;57649;42.968;1.608;2023-04-24T02:56:14;97204.00;;;9.47;100.00
70254;BME280;57649;42.968;1.608;2023-04-24T02:58:39;97204.00;;;9.38;100.00
70254;BME280;57649;42.968;1.608;2023-04-24T03:01:05;97199.31;;;9.24;100.00
70254;BME280;57649;42.968;1.608;2023-04-24T03:03:30;97199.31;;;9.24;100.00
70254;BME280;57649;42.968;1.608;2023-04-24T03:05:56;97206.16;;;9.18;100.00
70254;BME280;57649;42.968;1.608;2023-04-24T03:08:22;97203.31;;;9.20;100.00
70254;BME280;57649;42.968;1.608;2023-04-24T03:10:47;97201.47;;;9.12;100.00
70254;BME280;57649;42.968;1.608;2023-04-24T03:13:13;97199.94;;;9.10;100.00
70254;BME280;57649;42.968;1.608;2023-04-24T03:15:38;97199.94;;;9.01;100.00
70254;BME280;57649;42.968;1.608;2023-04-24T03:18:03;97205.94;;;9.03;100.00
70254;BME280;57649;42.968;1.608;2023-04-24T03:20:29;97198.41;;;8.91;100.00
70254;BME280;57649;42.968;1.608;2023-04-24T03:22:54;97195.59;;;8.92;100.00
70254;BME280;57649;42.968;1.608;2023-04-24T03:25:21;97197.56;;;8.90;100.00
70254;BME280;57649;42.968;1.608;2023-04-24T03:27:46;97201.25;;;8.89;100.00
70254;BME280;57649;42.968;1.608;2023-04-24T03:30:12;97206.41;;;8.91;100.00
70254;BME280;57649;42.968;1.608;2023-04-24T03:32:37;97197.75;;;8.89;100.00
70254;BME280;57649;42.968;1.608;2023-04-24T03:35:05;97197.53;;;8.82;100.00
70254;BME280;57649;42.968;1.608;2023-04-24T03:37:31;97202.88;;;8.74;100.00
70254;BME280;57649;42.968;1.608;2023-04-24T03:39:56;97189.63;;;8.64;100.00
70254;BME280;57649;42.968;1.608;2023-04-24T03:42:22;97200.34;;;8.72;100.00
70254;BME280;57649;42.968;1.608;2023-04-24T03:44:47;97205.03;;;8.70;100.00
70254;BME280;57649;42.968;1.608;2023-04-24T03:47:13;97202.00;;;8.65;100.00
70254;BME280;57649;42.968;1.608;2023-04-24T03:49:38;97186.44;;;8.60;100.00
70254;BME280;57649;42.968;1.608;2023-04-24T03:52:04;97193.34;;;8.71;100.00
70254;BME280;57649;42.968;1.608;2023-04-24T03:54:29;97192.47;;;8.62;100.00
70254;BME280;57649;42.968;1.608;2023-04-24T03:56:54;97191.25;;;8.48;100.00
70254;BME280;57649;42.968;1.608;2023-04-24T03:59:20;97198.75;;;8.45;100.00
70254;BME280;57649;42.968;1.608;2023-04-24T04:01:45;97197.38;;;8.41;100.00
70254;BME280;57649;42.968;1.608;2023-04-24T04:04:11;97203.06;;;8.46;100.00
70254;BME280;57649;42.968;1.608;2023-04-24T04:06:37;97200.66;;;8.35;100.00
70254;BME280;57649;42.968;1.608;2023-04-24T04:09:03;97200.19;;;8.39;100.00
70254;BME280;57649;42.968;1.608;2023-04-24T04:11:29;97195.69;;;8.40;100.00
70254;BME280;57649;42.968;1.608;2023-04-24T04:13:55;97195.97;;;8.28;100.00
70254;BME280;57649;42.968;1.608;2023-04-24T04:16:22;97208.81;;;8.33;100.00
70254;BME280;57649;42.968;1.608;2023-04-24T04:18:47;97209.50;;;8.35;100.00
70254;BME280;57649;42.968;1.608;2023-04-24T04:21:13;97198.75;;;8.45;100.00
70254;BME280;57649;42.968;1.608;2023-04-24T04:23:38;97206.34;;;8.40;100.00
70254;BME280;57649;42.968;1.608;2023-04-24T04:26:05;97202.19;;;8.37;100.00
70254;BME280;57649;42.968;1.608;2023-04-24T04:28:30;97206.34;;;8.40;100.00
70254;BME280;57649;42.968;1.608;2023-04-24T04:30:57;97213.16;;;8.34;100.00
70254;BME280;57649;42.968;1.608;2023-04-24T04:33:23;97221.00;;;8.36;100.00
70254;BME280;57649;42.968;1.608;2023-04-24T04:35:49;97222.63;;;8.28;100.00
70254;BME280;57649;42.968;1.608;2023-04-24T04:38:17;97224.56;;;8.18;100.00
70254;BME280;57649;42.968;1.608;2023-04-24T04:40:43;97222.47;;;8.04;100.00
70254;BME280;57649;42.968;1.608;2023-04-24T04:43:09;97221.63;;;8.03;100.00
70254;BME280;57649;42.968;1.608;2023-04-24T04:45:36;97226.81;;;8.05;100.00
70254;BME280;57649;42.968;1.608;2023-04-24T04:48:02;97234.84;;;8.13;100.00
70254;BME280;57649;42.968;1.608;2023-04-24T04:50:28;97238.69;;;8.10;100.00
70254;BME280;57649;42.968;1.608;2023-04-24T04:52:54;97247.06;;;8.16;100.00
70254;BME280;57649;42.968;1.608;2023-04-24T04:55:19;97245.88;;;8.18;100.00
70254;BME280;57649;42.968;1.608;2023-04-24T04:57:46;97246.81;;;8.09;100.00
70254;BME280;57649;42.968;1.608;2023-04-24T05:00:12;97247.84;;;8.08;100.00
70254;BME280;57649;42.968;1.608;2023-04-24T05:02:38;97251.34;;;8.08;100.00
70254;BME280;57649;42.968;1.608;2023-04-24T05:05:04;97246.78;;;8.01;100.00
70254;BME280;57649;42.968;1.608;2023-04-24T05:07:30;97247.19;;;7.88;100.00
70254;BME280;57649;42.968;1.608;2023-04-24T05:09:56;97253.34;;;7.88;100.00
70254;BME280;57649;42.968;1.608;2023-04-24T05:12:21;97242.75;;;7.97;100.00
70254;BME280;57649;42.968;1.608;2023-04-24T05:14:46;97254.94;;;7.99;100.00
70254;BME280;57649;42.968;1.608;2023-04-24T05:17:12;97259.34;;;8.08;100.00
70254;BME280;57649;42.968;1.608;2023-04-24T05:19:37;97263.56;;;8.19;100.00
70254;BME280;57649;42.968;1.608;2023-04-24T05:22:04;97265.56;;;8.17;100.00
70254;BME280;57649;42.968;1.608;2023-04-24T05:24:35;97269.31;;;8.06;100.00
70254;BME280;57649;42.968;1.608;2023-04-24T05:27:00;97281.44;;;8.01;100.00
70254;BME280;57649;42.968;1.608;2023-04-24T05:29:27;97282.72;;;7.97;100.00
70254;BME280;57649;42.968;1.608;2023-04-24T05:31:53;97286.09;;;7.99;100.00
70254;BME280;57649;42.968;1.608;2023-04-24T05:34:18;97280.84;;;7.89;100.00
70254;BME280;57649;42.968;1.608;2023-04-24T05:36:43;97278.41;;;7.96;100.00
70254;BME280;57649;42.968;1.608;2023-04-24T05:39:09;97288.91;;;7.97;100.00
70254;BME280;57649;42.968;1.608;2023-04-24T05:41:34;97284.88;;;7.93;100.00
70254;BME280;57649;42.968;1.608;2023-04-24T05:44:00;97289.84;;;7.88;100.00
70254;BME280;57649;42.968;1.608;2023-04-24T05:46:25;97286.69;;;7.93;100.00
70254;BME280;57649;42.968;1.608;2023-04-24T05:48:51;97300.78;;;7.85;100.00
70254;BME280;57649;42.968;1.608;2023-04-24T05:51:16;97297.69;;;7.89;100.00
70254;BME280;57649;42.968;1.608;2023-04-24T05:53:42;97300.78;;;7.85;100.00
70254;BME280;57649;42.968;1.608;2023-04-24T05:56:07;97293.28;;;7.80;100.00
70254;BME280;57649;42.968;1.608;2023-04-24T05:58:33;97306.28;;;7.83;100.00
70254;BME280;57649;42.968;1.608;2023-04-24T06:00:58;97300.75;;;7.77;100.00
70254;BME280;57649;42.968;1.608;2023-04-24T06:03:25;97313.88;;;7.78;100.00
70254;BME280;57649;42.968;1.608;2023-04-24T06:05:52;97313.34;;;7.93;100.00
70254;BME280;57649;42.968;1.608;2023-04-24T06:08:17;97321.66;;;7.89;100.00
70254;BME280;57649;42.968;1.608;2023-04-24T06:10:43;97310.47;;;7.86;100.00
70254;BME280;57649;42.968;1.608;2023-04-24T06:13:08;97325.22;;;7.98;100.00
70254;BME280;57649;42.968;1.608;2023-04-24T06:15:33;97327.59;;;7.83;100.00
70254;BME280;57649;42.968;1.608;2023-04-24T06:17:59;97327.59;;;7.83;100.00
70254;BME280;57649;42.968;1.608;2023-04-24T06:20:25;97325.31;;;7.88;100.00
70254;BME280;57649;42.968;1.608;2023-04-24T06:22:50;97318.47;;;7.86;100.00
70254;BME280;57649;42.968;1.608;2023-04-24T06:25:16;97326.09;;;7.99;100.00
70254;BME280;57649;42.968;1.608;2023-04-24T06:27:41;97323.47;;;8.07;100.00
70254;BME280;57649;42.968;1.608;2023-04-24T06:30:07;97340.81;;;8.11;100.00
70254;BME280;57649;42.968;1.608;2023-04-24T06:32:33;97321.09;;;8.04;100.00
70254;BME280;57649;42.968;1.608;2023-04-24T06:34:58;97330.78;;;8.05;100.00
70254;BME280;57649;42.968;1.608;2023-04-24T06:37:23;97323.69;;;8.14;100.00
70254;BME280;57649;42.968;1.608;2023-04-24T06:39:49;97345.56;;;8.17;100.00
70254;BME280;57649;42.968;1.608;2023-04-24T06:42:14;97336.88;;;8.15;100.00
70254;BME280;57649;42.968;1.608;2023-04-24T06:44:40;97332.97;;;8.27;100.00
70254;BME280;57649;42.968;1.608;2023-04-24T06:47:09;97336.78;;;8.43;100.00
70254;BME280;57649;42.968;1.608;2023-04-24T06:49:35;97330.88;;;8.39;100.00
70254;BME280;57649;42.968;1.608;2023-04-24T06:52:01;97344.78;;;8.43;100.00
70254;BME280;57649;42.968;1.608;2023-04-24T06:54:26;97323.47;;;8.51;100.00
70254;BME280;57649;42.968;1.608;2023-04-24T06:56:52;97344.44;;;8.46;100.00
70254;BME280;57649;42.968;1.608;2023-04-24T06:59:17;97346.44;;;8.44;100.00
70254;BME280;57649;42.968;1.608;2023-04-24T07:01:43;97332.66;;;8.48;100.00
70254;BME280;57649;42.968;1.608;2023-04-24T07:04:08;97335.16;;;8.50;100.00
70254;BME280;57649;42.968;1.608;2023-04-24T07:06:34;97336.53;;;8.54;100.00
70254;BME280;57649;42.968;1.608;2023-04-24T07:09:01;97335.28;;;8.66;100.00
70254;BME280;57649;42.968;1.608;2023-04-24T07:11:26;97333.94;;;8.71;100.00
70254;BME280;57649;42.968;1.608;2023-04-24T07:13:54;97348.06;;;8.89;100.00
70254;BME280;57649;42.968;1.608;2023-04-24T07:16:20;97335.53;;;8.90;100.00
70254;BME280;57649;42.968;1.608;2023-04-24T07:18:45;97341.78;;;8.98;100.00
70254;BME280;57649;42.968;1.608;2023-04-24T07:21:10;97343.78;;;9.04;100.00
70254;BME280;57649;42.968;1.608;2023-04-24T07:23:36;97326.13;;;9.12;100.00
70254;BME280;57649;42.968;1.608;2023-04-24T07:26:02;97341.41;;;9.28;100.00
70254;BME280;57649;42.968;1.608;2023-04-24T07:28:27;97331.75;;;9.43;100.00
70254;BME280;57649;42.968;1.608;2023-04-24T07:30:56;97342.38;;;9.86;100.00
70254;BME280;57649;42.968;1.608;2023-04-24T07:33:22;97336.53;;;9.90;100.00
70254;BME280;57649;42.968;1.608;2023-04-24T07:35:48;97329.38;;;10.15;100.00
70254;BME280;57649;42.968;1.608;2023-04-24T07:38:13;97333.72;;;10.41;94.69
70254;BME280;57649;42.968;1.608;2023-04-24T07:40:39;97330.69;;;10.52;95.69
70254;BME280;57649;42.968;1.608;2023-04-24T07:43:04;97324.16;;;10.63;96.92
70254;BME280;57649;42.968;1.608;2023-04-24T07:45:30;97339.63;;;11.01;91.07
70254;BME280;57649;42.968;1.608;2023-04-24T07:47:56;97328.00;;;11.16;86.93
70254;BME280;57649;42.968;1.608;2023-04-24T07:50:22;97322.34;;;11.43;80.75
70254;BME280;57649;42.968;1.608;2023-04-24T07:52:47;97327.72;;;11.74;77.25
70254;BME280;57649;42.968;1.608;2023-04-24T07:55:13;97312.50;;;11.98;73.50
70254;BME280;57649;42.968;1.608;2023-04-24T07:57:38;97298.72;;;12.24;74.40
70254;BME280;57649;42.968;1.608;2023-04-24T08:00:04;97320.44;;;12.67;72.96
70254;BME280;57649;42.968;1.608;2023-04-24T08:02:31;97302.78;;;13.17;69.71
70254;BME280;57649;42.968;1.608;2023-04-24T08:04:56;97286.38;;;13.63;66.43
70254;BME280;57649;42.968;1.608;2023-04-24T08:07:23;97300.75;;;14.14;67.94
70254;BME280;57649;42.968;1.608;2023-04-24T08:09:48;97292.16;;;14.75;65.81
70254;BME280;57649;42.968;1.608;2023-04-24T08:12:14;97286.66;;;14.96;63.01
70254;BME280;57649;42.968;1.608;2023-04-24T08:14:40;97291.53;;;15.69;61.64
70254;BME280;57649;42.968;1.608;2023-04-24T08:17:05;97284.16;;;15.91;59.03
70254;BME280;57649;42.968;1.608;2023-04-24T08:19:31;97279.84;;;16.30;58.10
70254;BME280;57649;42.968;1.608;2023-04-24T08:21:56;97272.78;;;16.56;57.82
70254;BME280;57649;42.968;1.608;2023-04-24T08:24:22;97264.19;;;16.79;62.90
70254;BME280;57649;42.968;1.608;2023-04-24T08:26:48;97275.25;;;16.84;61.47
70254;BME280;57649;42.968;1.608;2023-04-24T08:29:16;97270.81;;;17.03;61.99
70254;BME280;57649;42.968;1.608;2023-04-24T08:31:42;97265.88;;;16.87;57.60
70254;BME280;57649;42.968;1.608;2023-04-24T08:34:07;97256.59;;;17.28;58.89
70254;BME280;57649;42.968;1.608;2023-04-24T08:36:32;97252.03;;;17.67;53.47
70254;BME280;57649;42.968;1.608;2023-04-24T08:38:58;97254.13;;;18.03;55.89
70254;BME280;57649;42.968;1.608;2023-04-24T08:41:24;97254.72;;;18.37;59.57
70254;BME280;57649;42.968;1.608;2023-04-24T08:43:51;97254.28;;;18.59;56.77
70254;BME280;57649;42.968;1.608;2023-04-24T08:46:18;97245.88;;;18.92;54.76
70254;BME280;57649;42.968;1.608;2023-04-24T08:48:44;97223.84;;;19.19;56.73
70254;BME280;57649;42.968;1.608;2023-04-24T08:51:10;97243.75;;;18.94;56.20
70254;BME280;57649;42.968;1.608;2023-04-24T08:53:36;97242.63;;;19.02;53.22
70254;BME280;57649;42.968;1.608;2023-04-24T08:56:03;97240.41;;;18.49;53.12
70254;BME280;57649;42.968;1.608;2023-04-24T08:58:29;97246.09;;;18.65;53.90
70254;BME280;57649;42.968;1.608;2023-04-24T09:00:56;97246.72;;;18.42;50.25
70254;BME280;57649;42.968;1.608;2023-04-24T09:03:23;97247.31;;;17.94;52.23
70254;BME280;57649;42.968;1.608;2023-04-24T09:05:49;97234.13;;;18.04;52.15
70254;BME280;57649;42.968;1.608;2023-04-24T09:08:19;97242.31;;;18.23;52.52
70254;BME280;57649;42.968;1.608;2023-04-24T09:10:46;97241.97;;;18.38;50.49
70254;BME280;57649;42.968;1.608;2023-04-24T09:13:11;97240.75;;;18.08;51.35
70254;BME280;57649;42.968;1.608;2023-04-24T09:15:37;97233.63;;;18.14;50.86
70254;BME280;57649;42.968;1.608;2023-04-24T09:18:04;97223.28;;;18.30;51.03
70254;BME280;57649;42.968;1.608;2023-04-24T09:20:30;97234.75;;;18.00;49.73
70254;BME280;57649;42.968;1.608;2023-04-24T09:22:57;97233.56;;;18.46;50.29
70254;BME280;57649;42.968;1.608;2023-04-24T09:25:25;97231.94;;;17.88;51.14
70254;BME280;57649;42.968;1.608;2023-04-24T09:28:00;97230.66;;;17.91;50.58
70254;BME280;57649;42.968;1.608;2023-04-24T09:30:25;97232.78;;;17.88;50.55
70254;BME280;57649;42.968;1.608;2023-04-24T09:33:09;97231.72;;;17.83;52.33
70254;BME280;57649;42.968;1.608;2023-04-24T09:35:35;97217.94;;;17.91;51.18
70254;BME280;57649;42.968;1.608;2023-04-24T09:38:00;97223.75;;;17.56;50.16
70254;BME280;57649;42.968;1.608;2023-04-24T09:40:25;97221.13;;;17.88;50.54
70254;BME280;57649;42.968;1.608;2023-04-24T09:42:53;97229.84;;;17.51;51.06
70254;BME280;57649;42.968;1.608;2023-04-24T09:45:19;97212.84;;;17.38;49.60
70254;BME280;57649;42.968;1.608;2023-04-24T09:47:45;97229.66;;;17.78;50.35
70254;BME280;57649;42.968;1.608;2023-04-24T09:50:16;97210.63;;;17.60;51.10
70254;BME280;57649;42.968;1.608;2023-04-24T09:52:47;97225.91;;;17.47;52.14
70254;BME280;57649;42.968;1.608;2023-04-24T09:55:20;97223.25;;;17.41;50.87
70254;BME280;57649;42.968;1.608;2023-04-24T10:00:32;97216.75;;;17.80;51.36
70254;BME280;57649;42.968;1.608;2023-04-24T10:03:03;97211.00;;;17.70;50.57
70254;BME280;57649;42.968;1.608;2023-04-24T10:05:33;97205.03;;;17.16;51.19
70254;BME280;57649;42.968;1.608;2023-04-24T10:08:06;97217.75;;;17.54;52.82
70254;BME280;57649;42.968;1.608;2023-04-24T10:10:36;97216.03;;;17.60;51.69
70254;BME280;57649;42.968;1.608;2023-04-24T10:13:03;97210.06;;;18.15;51.21
70254;BME280;57649;42.968;1.608;2023-04-24T10:15:29;97215.38;;;18.28;51.31
70254;BME280;57649;42.968;1.608;2023-04-24T10:17:58;97207.66;;;18.32;50.80
70254;BME280;57649;42.968;1.608;2023-04-24T10:20:26;97204.22;;;18.18;52.07
70254;BME280;57649;42.968;1.608;2023-04-24T10:22:53;97213.66;;;18.34;51.80
70254;BME280;57649;42.968;1.608;2023-04-24T10:25:24;97205.50;;;18.15;50.37
70254;BME280;57649;42.968;1.608;2023-04-24T10:27:50;97208.44;;;18.57;51.49
70254;BME280;57649;42.968;1.608;2023-04-24T10:30:17;97196.06;;;19.05;50.46
70254;BME280;57649;42.968;1.608;2023-04-24T10:32:43;97197.88;;;18.93;50.85
70254;BME280;57649;42.968;1.608;2023-04-24T10:35:10;97187.97;;;19.17;49.24
70254;BME280;57649;42.968;1.608;2023-04-24T10:37:38;97192.81;;;18.96;50.51
70254;BME280;57649;42.968;1.608;2023-04-24T10:40:07;97210.81;;;18.47;50.47
70254;BME280;57649;42.968;1.608;2023-04-24T10:42:33;97201.25;;;18.88;50.40
70254;BME280;57649;42.968;1.608;2023-04-24T10:44:59;97214.75;;;18.70;50.14
70254;BME280;57649;42.968;1.608;2023-04-24T10:47:29;97199.81;;;19.04;49.87
70254;BME280;57649;42.968;1.608;2023-04-24T10:49:58;97197.53;;;19.19;50.70
70254;BME280;57649;42.968;1.608;2023-04-24T10:52:43;97200.41;;;18.88;51.17
70254;BME280;57649;42.968;1.608;2023-04-24T10:55:09;97203.53;;;18.47;53.71
70254;BME280;57649;42.968;1.608;2023-04-24T10:57:34;97202.16;;;17.81;55.80
70254;BME280;57649;42.968;1.608;2023-04-24T11:02:38;97187.78;;;18.13;56.22
70254;BME280;57649;42.968;1.608;2023-04-24T11:05:05;97190.31;;;17.82;56.54
70254;BME280;57649;42.968;1.608;2023-04-24T11:08:12;97183.81;;;17.83;55.44
70254;BME280;57649;42.968;1.608;2023-04-24T11:10:39;97182.38;;;18.13;56.05
70254;BME280;57649;42.968;1.608;2023-04-24T11:13:05;97192.66;;;17.72;55.97
70254;BME280;57649;42.968;1.608;2023-04-24T11:15:30;97189.06;;;18.10;55.53
70254;BME280;57649;42.968;1.608;2023-04-24T11:17:56;97187.75;;;18.19;55.02
70254;BME280;57649;42.968;1.608;2023-04-24T11:20:23;97191.22;;;18.01;56.61
70254;BME280;57649;42.968;1.608;2023-04-24T11:22:52;97191.44;;;18.00;56.47
70254;BME280;57649;42.968;1.608;2023-04-24T11:25:21;97185.38;;;18.04;57.06
70254;BME280;57649;42.968;1.608;2023-04-24T11:27:47;97196.28;;;17.59;56.52
70254;BME280;57649;42.968;1.608;2023-04-24T11:30:17;97193.09;;;17.69;57.22
70254;BME280;57649;42.968;1.608;2023-04-24T11:32:47;97189.06;;;18.10;56.68
70254;BME280;57649;42.968;1.608;2023-04-24T11:35:20;97191.06;;;17.58;57.54
70254;BME280;57649;42.968;1.608;2023-04-24T11:37:48;97182.22;;;17.44;57.90
70254;BME280;57649;42.968;1.608;2023-04-24T11:40:18;97189.78;;;17.28;60.06
70254;BME280;57649;42.968;1.608;2023-04-24T11:42:50;97192.81;;;17.45;58.27
70254;BME280;57649;42.968;1.608;2023-04-24T11:45:26;97198.84;;;17.79;57.51
70254;BME280;57649;42.968;1.608;2023-04-24T11:47:52;97189.00;;;17.92;58.00
70254;BME280;57649;42.968;1.608;2023-04-24T11:50:21;97183.94;;;17.70;58.62
70254;BME280;57649;42.968;1.608;2023-04-24T11:52:48;97195.63;;;17.64;58.99
70254;BME280;57649;42.968;1.608;2023-04-24T11:57:41;97197.00;;;17.41;59.32
70254;BME280;57649;42.968;1.608;2023-04-24T12:00:18;97209.81;;;17.59;59.06
70254;BME280;57649;42.968;1.608;2023-04-24T12:02:44;97188.97;;;17.28;59.53
70254;BME280;57649;42.968;1.608;2023-04-24T12:05:22;97181.75;;;17.85;58.62
70254;BME280;57649;42.968;1.608;2023-04-24T12:07:49;97178.84;;;17.48;56.17
70254;BME280;57649;42.968;1.608;2023-04-24T12:10:19;97186.94;;;17.55;56.94
70254;BME280;57649;42.968;1.608;2023-04-24T12:12:45;97175.69;;;17.83;56.68
70254;BME280;57649;42.968;1.608;2023-04-24T12:15:11;97176.44;;;18.22;56.73
70254;BME280;57649;42.968;1.608;2023-04-24T12:17:41;97178.50;;;18.27;55.10
70254;BME280;57649;42.968;1.608;2023-04-24T12:20:07;97192.47;;;18.24;55.96
70254;BME280;57649;42.968;1.608;2023-04-24T12:22:57;97187.28;;;18.22;54.97
70254;BME280;57649;42.968;1.608;2023-04-24T12:25:25;97176.56;;;18.09;55.76
70254;BME280;57649;42.968;1.608;2023-04-24T12:28:08;97183.31;;;18.00;56.04
70254;BME280;57649;42.968;1.608;2023-04-24T12:33:09;97170.38;;;18.45;55.90
70254;BME280;57649;42.968;1.608;2023-04-24T12:35:34;97172.75;;;18.79;54.88
70254;BME280;57649;42.968;1.608;2023-04-24T12:38:12;97168.66;;;18.70;53.85
70254;BME280;57649;42.968;1.608;2023-04-24T12:40:39;97165.28;;;18.12;55.96
70254;BME280;57649;42.968;1.608;2023-04-24T12:43:15;97180.25;;;18.40;55.41
70254;BME280;57649;42.968;1.608;2023-04-24T12:45:41;97173.19;;;18.57;54.85
70254;BME280;57649;42.968;1.608;2023-04-24T12:48:06;97163.47;;;18.50;55.66
70254;BME280;57649;42.968;1.608;2023-04-24T12:50:32;97153.31;;;18.45;55.99
70254;BME280;57649;42.968;1.608;2023-04-24T12:52:57;97160.56;;;18.26;55.19
70254;BME280;57649;42.968;1.608;2023-04-24T12:55:22;97152.56;;;18.75;53.48
70254;BME280;57649;42.968;1.608;2023-04-24T12:57:48;97144.81;;;18.60;52.62
70254;BME280;57649;42.968;1.608;2023-04-24T13:00:14;97147.16;;;18.93;54.49
70254;BME280;57649;42.968;1.608;2023-04-24T13:02:39;97143.97;;;19.15;55.01
70254;BME280;57649;42.968;1.608;2023-04-24T13:05:05;97150.59;;;19.00;55.62
70254;BME280;57649;42.968;1.608;2023-04-24T13:07:31;97145.72;;;18.54;55.68